Time;durP1;ratioP1;P1;durP2;ratioP2;P2;SDS_P1;SDS_P2;PMS_P1;PMS_P2;Temp;Humidity;BMP_temperature;BMP_pressure;BME280_temperature;BME280_humidity;BME280_pressure;Samples;Min_cycle;Max_cycle;Signal;HPM_P1;HPM_P2
2021/10/07 04:02:04;;;;;;;3.95;3.63;;;7.40;99.90;;;;;;5201625;23;20631;-72
2021/10/07 04:04:30;;;;;;;4.10;3.80;;;7.40;99.90;;;;;;4916295;29;20215;-72
2021/10/07 04:06:57;;;;;;;4.50;4.20;;;7.30;99.90;;;;;;4917222;29;20218;-72
2021/10/07 04:09:24;;;;;;;4.22;4.03;;;7.30;99.90;;;;;;4917056;29;20230;-73
2021/10/07 04:11:51;;;;;;;5.18;4.38;;;7.30;99.90;;;;;;4917103;29;20238;-72
2021/10/07 04:14:17;;;;;;;4.10;3.80;;;7.30;99.90;;;;;;4917139;29;20214;-73
2021/10/07 04:16:44;;;;;;;4.60;4.30;;;7.30;99.90;;;;;;4917236;29;20274;-72
2021/10/07 04:19:12;;;;;;;4.25;3.85;;;7.20;99.90;;;;;;4917001;29;20218;-72
2021/10/07 04:21:39;;;;;;;4.68;4.43;;;7.30;99.90;;;;;;4910009;29;20310;-72
2021/10/07 04:24:06;;;;;;;3.95;3.65;;;7.30;99.90;;;;;;4897874;29;20302;-72
2021/10/07 04:26:33;;;;;;;4.25;3.88;;;7.30;99.90;;;;;;4898010;29;20259;-72
2021/10/07 04:28:59;;;;;;;3.67;3.40;;;7.20;99.90;;;;;;4898319;29;20215;-72
2021/10/07 04:31:26;;;;;;;4.55;4.18;;;7.20;99.90;;;;;;4896826;29;20301;-73
2021/10/07 04:33:53;;;;;;;4.22;4.03;;;7.20;99.90;;;;;;4896769;29;20338;-69
2021/10/07 04:36:21;;;;;;;5.95;4.60;;;7.10;99.90;;;;;;4896901;29;20267;-72
2021/10/07 04:38:48;;;;;;;4.25;4.05;;;7.10;99.90;;;;;;4898109;29;20746;-72
2021/10/07 04:41:15;;;;;;;4.35;4.05;;;7.10;99.90;;;;;;4897670;29;20231;-70
2021/10/07 04:43:42;;;;;;;5.85;4.45;;;7.10;99.90;;;;;;4897599;29;20215;-71
2021/10/07 04:46:09;;;;;;;4.05;3.75;;;7.10;99.90;;;;;;4897394;29;20211;-70
2021/10/07 04:48:36;;;;;;;4.50;4.10;;;7.10;99.90;;;;;;4897863;29;20215;-70
2021/10/07 04:51:03;;;;;;;3.30;3.20;;;7.10;99.90;;;;;;4896550;29;20235;-70
2021/10/07 04:53:31;;;;;;;4.13;3.75;;;7.10;99.90;;;;;;4897364;29;20508;-70
2021/10/07 04:55:58;;;;;;;4.32;3.90;;;7.10;99.90;;;;;;4897286;29;20227;-72
2021/10/07 04:58:25;;;;;;;3.92;3.72;;;7.20;99.90;;;;;;4897495;29;20306;-72
2021/10/07 05:00:52;;;;;;;4.07;3.75;;;7.10;99.90;;;;;;4897131;29;20234;-72
2021/10/07 05:03:19;;;;;;;4.22;3.65;;;7.20;99.90;;;;;;4897536;29;20222;-72
2021/10/07 05:05:46;;;;;;;4.03;3.85;;;7.20;99.90;;;;;;4896589;29;20223;-72
2021/10/07 05:08:12;;;;;;;4.70;4.20;;;7.10;99.90;;;;;;4897419;29;20578;-72
2021/10/07 05:10:40;;;;;;;5.55;5.05;;;7.10;99.90;;;;;;4896951;29;20243;-72
2021/10/07 05:13:07;;;;;;;6.32;5.78;;;7.10;99.90;;;;;;4897150;29;20219;-74
2021/10/07 05:15:34;;;;;;;5.85;4.43;;;7.10;99.90;;;;;;4897227;29;20215;-75
2021/10/07 05:18:01;;;;;;;4.32;4.13;;;7.00;99.90;;;;;;4897631;29;20211;-74
2021/10/07 05:20:28;;;;;;;4.65;4.20;;;7.00;99.90;;;;;;4896590;29;20235;-74
2021/10/07 05:22:54;;;;;;;5.68;4.20;;;7.00;99.90;;;;;;4897075;29;20211;-74
2021/10/07 05:25:21;;;;;;;4.30;3.90;;;7.10;99.90;;;;;;4896979;29;20227;-73
2021/10/07 05:27:49;;;;;;;4.53;4.22;;;7.00;99.90;;;;;;4897005;29;20227;-73
2021/10/07 05:30:16;;;;;;;4.38;4.07;;;7.10;99.90;;;;;;4896857;29;20779;-75
2021/10/07 05:32:43;;;;;;;5.63;3.58;;;7.10;99.90;;;;;;4897150;29;20210;-75
2021/10/07 05:35:10;;;;;;;4.15;3.95;;;7.10;99.90;;;;;;4896406;29;20588;-74
2021/10/07 05:37:37;;;;;;;5.85;5.50;;;7.10;99.90;;;;;;4897144;29;20211;-76
2021/10/07 05:40:04;;;;;;;5.78;5.28;;;7.10;99.90;;;;;;4896939;29;20255;-75
2021/10/07 05:42:31;;;;;;;5.28;4.65;;;7.10;99.90;;;;;;4897586;29;20647;-76
2021/10/07 05:44:59;;;;;;;5.30;4.93;;;7.10;99.90;;;;;;4901154;29;20214;-76
2021/10/07 05:47:26;;;;;;;4.85;4.45;;;7.10;99.90;;;;;;4901501;29;20212;-76
2021/10/07 05:49:52;;;;;;;4.93;4.53;;;7.10;99.90;;;;;;4900860;29;20226;-74
2021/10/07 05:52:19;;;;;;;4.88;4.57;;;7.10;99.90;;;;;;4900438;29;20231;-74
2021/10/07 05:54:46;;;;;;;4.55;4.15;;;7.10;99.90;;;;;;4900458;29;20355;-73
2021/10/07 05:57:12;;;;;;;5.13;4.72;;;7.10;99.90;;;;;;4900764;29;20594;-74
2021/10/07 05:59:39;;;;;;;5.00;4.30;;;7.10;99.90;;;;;;4901178;29;20214;-74
2021/10/07 06:02:07;;;;;;;5.22;4.82;;;7.20;99.90;;;;;;4900174;29;20247;-74
2021/10/07 06:04:34;;;;;;;5.18;4.60;;;7.20;99.90;;;;;;4899636;29;20271;-74
2021/10/07 06:07:01;;;;;;;4.78;4.38;;;7.20;99.90;;;;;;4900834;29;20349;-74
2021/10/07 06:09:27;;;;;;;4.80;4.50;;;7.20;99.90;;;;;;4900228;29;20219;-74
2021/10/07 06:11:54;;;;;;;5.60;5.22;;;7.20;99.90;;;;;;4900787;29;20235;-74
2021/10/07 06:14:23;;;;;;;3.90;3.60;;;7.30;99.90;;;;;;4900344;29;20215;-73
2021/10/07 06:16:52;;;;;;;5.40;4.95;;;7.30;99.90;;;;;;4900566;29;20215;-76
2021/10/07 06:19:22;;;;;;;5.53;4.93;;;7.30;99.90;;;;;;4899808;29;20215;-75
2021/10/07 06:21:49;;;;;;;5.13;4.68;;;7.40;99.90;;;;;;4900102;29;20232;-75
2021/10/07 06:24:16;;;;;;;8.95;5.88;;;7.40;99.90;;;;;;4899869;29;20219;-75
2021/10/07 06:26:43;;;;;;;5.30;5.00;;;7.40;99.90;;;;;;4900314;29;20215;-75
2021/10/07 06:29:10;;;;;;;5.93;5.38;;;7.50;99.90;;;;;;4900451;29;20216;-75
2021/10/07 06:31:38;;;;;;;5.28;4.78;;;7.50;99.90;;;;;;4900079;29;20290;-75
2021/10/07 06:34:05;;;;;;;5.32;4.93;;;7.60;99.90;;;;;;4900053;29;20286;-74
2021/10/07 06:36:35;;;;;;;4.60;4.28;;;7.60;99.90;;;;;;4899134;29;20564;-74
2021/10/07 06:39:01;;;;;;;4.68;4.35;;;7.70;99.90;;;;;;4900261;29;20271;-74
2021/10/07 06:41:28;;;;;;;8.25;4.53;;;7.70;99.90;;;;;;4899742;29;20641;-75
2021/10/07 06:43:55;;;;;;;5.32;4.93;;;7.70;99.90;;;;;;4899562;29;20215;-74
2021/10/07 06:46:24;;;;;;;5.38;4.97;;;7.80;99.90;;;;;;4899571;29;20220;-73
2021/10/07 06:48:54;;;;;;;4.38;4.18;;;7.90;99.90;;;;;;4899815;29;20215;-73
2021/10/07 06:51:21;;;;;;;5.15;4.80;;;7.90;99.90;;;;;;4899401;29;20242;-73
2021/10/07 06:53:52;;;;;;;5.95;5.28;;;7.90;99.90;;;;;;4899216;29;20298;-74
2021/10/07 06:56:20;;;;;;;8.18;5.32;;;8.00;99.90;;;;;;4899389;29;20242;-73
2021/10/07 06:58:47;;;;;;;8.15;6.50;;;8.10;99.90;;;;;;4899911;29;20212;-72
2021/10/07 07:01:14;;;;;;;6.13;5.60;;;8.10;99.90;;;;;;4899170;29;20237;-73
2021/10/07 07:03:40;;;;;;;6.53;5.68;;;8.20;99.90;;;;;;4899965;29;20243;-73
2021/10/07 07:06:07;;;;;;;7.78;6.00;;;8.30;99.90;;;;;;4899660;29;20215;-74
2021/10/07 07:08:34;;;;;;;6.07;5.57;;;8.40;99.90;;;;;;4899646;29;20215;-73
2021/10/07 07:11:02;;;;;;;5.50;4.75;;;8.40;99.90;;;;;;4899194;29;20275;-72
2021/10/07 07:13:28;;;;;;;5.75;5.35;;;8.50;99.90;;;;;;4899203;29;20211;-72
2021/10/07 07:15:55;;;;;;;5.90;5.43;;;8.60;99.90;;;;;;4899958;29;20271;-73
2021/10/07 07:18:22;;;;;;;6.45;5.93;;;8.60;99.90;;;;;;4902449;29;20676;-73
2021/10/07 07:20:49;;;;;;;5.88;5.38;;;8.70;99.90;;;;;;4902083;29;20279;-73
2021/10/07 07:23:16;;;;;;;6.80;6.05;;;8.80;99.90;;;;;;4901612;29;20215;-72
2021/10/07 07:25:43;;;;;;;7.85;5.55;;;8.90;99.90;;;;;;4900883;29;20215;-72
2021/10/07 07:28:11;;;;;;;6.20;5.70;;;8.90;99.90;;;;;;4901902;29;20218;-71
2021/10/07 07:30:38;;;;;;;6.18;5.75;;;9.00;99.90;;;;;;4901807;29;20350;-72
2021/10/07 07:33:05;;;;;;;6.10;5.70;;;9.10;99.90;;;;;;4901639;29;20211;-71
2021/10/07 07:35:32;;;;;;;10.25;6.10;;;9.10;99.90;;;;;;4901352;29;20267;-71
2021/10/07 07:37:59;;;;;;;6.40;6.00;;;9.20;99.90;;;;;;4900556;29;20218;-71
2021/10/07 07:40:25;;;;;;;7.43;5.82;;;9.30;99.90;;;;;;4898667;29;20287;-72
2021/10/07 07:42:52;;;;;;;6.63;6.07;;;9.30;99.90;;;;;;4898799;29;20208;-71
2021/10/07 07:45:20;;;;;;;9.60;6.38;;;9.40;99.90;;;;;;4898489;29;20211;-72
2021/10/07 07:47:47;;;;;;;7.18;6.68;;;9.40;99.90;;;;;;4898985;29;20234;-71
2021/10/07 07:50:18;;;;;;;6.68;6.07;;;9.50;99.90;;;;;;4898664;29;20211;-72
2021/10/07 07:52:45;;;;;;;6.20;5.57;;;9.50;99.90;;;;;;4898457;29;20222;-71
2021/10/07 07:55:12;;;;;;;6.60;5.97;;;9.60;99.90;;;;;;4898594;29;20580;-71
2021/10/07 07:57:39;;;;;;;6.70;5.63;;;9.70;99.90;;;;;;4898522;29;20263;-73
2021/10/07 08:00:07;;;;;;;6.32;5.90;;;9.70;99.90;;;;;;4898036;29;20616;-71
2021/10/07 08:02:35;;;;;;;6.50;6.00;;;9.80;99.90;;;;;;4898080;29;20294;-71
2021/10/07 08:05:01;;;;;;;6.97;6.10;;;9.80;99.90;;;;;;4897682;29;20207;-71
2021/10/07 08:07:28;;;;;;;6.53;6.00;;;9.90;99.90;;;;;;4897666;29;20274;-71
2021/10/07 08:09:55;;;;;;;7.07;6.20;;;10.00;99.90;;;;;;4898069;29;20290;-71
2021/10/07 08:12:21;;;;;;;9.00;6.43;;;10.10;99.90;;;;;;4897530;29;20298;-72
2021/10/07 08:14:49;;;;;;;6.82;6.22;;;10.10;99.90;;;;;;4897829;29;20664;-71
2021/10/07 08:17:16;;;;;;;5.10;4.70;;;10.20;99.90;;;;;;4898321;29;20211;-71
2021/10/07 08:19:46;;;;;;;5.97;5.57;;;10.30;99.90;;;;;;4897250;29;20218;-72
2021/10/07 08:22:12;;;;;;;5.75;5.30;;;10.40;99.90;;;;;;4897768;29;20227;-73
2021/10/07 08:24:39;;;;;;;5.60;4.93;;;10.50;99.90;;;;;;4897532;29;20223;-72
2021/10/07 08:27:06;;;;;;;9.07;4.97;;;10.60;99.90;;;;;;4897945;29;20211;-72
2021/10/07 08:29:32;;;;;;;5.80;4.93;;;10.70;99.90;;;;;;4898024;29;20287;-72
2021/10/07 08:31:59;;;;;;;6.18;5.15;;;10.70;99.90;;;;;;4897586;29;20302;-72
2021/10/07 08:34:26;;;;;;;8.48;5.18;;;10.80;99.90;;;;;;4896677;29;20523;-72
2021/10/07 08:36:54;;;;;;;5.10;4.60;;;10.90;99.90;;;;;;4897669;29;20675;-72
2021/10/07 08:39:21;;;;;;;5.82;5.30;;;11.00;99.90;;;;;;4897432;29;20219;-72
2021/10/07 08:41:49;;;;;;;5.25;4.80;;;11.10;99.90;;;;;;4897789;29;20230;-73
2021/10/07 08:44:16;;;;;;;4.70;4.28;;;11.20;99.90;;;;;;4897629;29;20211;-72
2021/10/07 08:46:46;;;;;;;5.63;5.13;;;11.30;99.90;;;;;;4897288;29;20222;-72
2021/10/07 08:49:14;;;;;;;5.35;4.95;;;11.40;99.90;;;;;;4897510;29;20634;-72
2021/10/07 08:51:41;;;;;;;6.25;5.75;;;11.60;99.90;;;;;;4896847;29;20236;-72
2021/10/07 08:54:09;;;;;;;5.07;4.78;;;11.70;99.90;;;;;;4897311;29;20222;-72
2021/10/07 08:56:36;;;;;;;4.95;4.65;;;11.90;99.90;;;;;;4897246;29;20286;-72
2021/10/07 08:59:04;;;;;;;5.65;4.30;;;12.00;99.90;;;;;;4898105;29;20207;-71
2021/10/07 09:01:42;;;;;;;4.15;3.95;;;12.00;99.90;;;;;;4897790;29;20235;-72
2021/10/07 09:04:20;;;;;;;5.05;4.80;;;12.10;99.90;;;;;;4899119;29;20233;-71
2021/10/07 09:06:48;;;;;;;5.38;4.93;;;12.20;99.90;;;;;;4897531;29;20330;-72
2021/10/07 09:09:16;;;;;;;5.03;4.63;;;12.20;99.90;;;;;;4897277;29;20219;-72
2021/10/07 09:11:43;;;;;;;4.60;4.20;;;12.30;99.90;;;;;;4897002;29;20234;-72
2021/10/07 09:14:12;;;;;;;4.33;4.03;;;12.30;99.90;;;;;;4897307;29;20849;-72
2021/10/07 09:16:44;;;;;;;4.87;4.50;;;12.40;99.90;;;;;;4897144;29;20836;-72
2021/10/07 09:19:19;;;;;;;6.97;4.83;;;12.50;99.90;;;;;;4896893;29;20471;-72
2021/10/07 09:21:48;;;;;;;4.40;4.10;;;12.70;99.90;;;;;;4896353;29;20514;-72
2021/10/07 09:24:32;;;;;;;4.17;3.90;;;12.70;99.90;;;;;;4897119;29;20837;-72
2021/10/07 09:27:04;;;;;;;3.93;3.53;;;12.80;99.90;;;;;;4897198;29;20585;-72
2021/10/07 09:29:36;;;;;;;3.50;3.20;;;12.90;99.90;;;;;;4896897;29;20458;-72
2021/10/07 09:32:03;;;;;;;3.37;3.17;;;13.00;99.90;;;;;;4897281;29;20567;-76
2021/10/07 09:34:42;;;;;;;3.10;3.00;;;13.00;99.90;;;;;;4896272;29;20534;-71
2021/10/07 09:37:28;;;;;;;3.90;3.60;;;13.20;99.90;;;;;;4896980;29;20627;-71
2021/10/07 09:39:58;;;;;;;2.97;2.87;;;13.40;99.90;;;;;;4896821;29;20844;-71
2021/10/07 09:42:27;;;;;;;2.70;2.60;;;13.50;99.90;;;;;;4896965;29;20499;-71
2021/10/07 09:45:09;;;;;;;3.00;2.57;;;13.50;99.90;;;;;;4896801;29;20527;-70
2021/10/07 09:47:38;;;;;;;4.83;2.50;;;13.60;99.90;;;;;;4896745;29;20475;-72
2021/10/07 09:50:11;;;;;;;2.43;2.30;;;13.60;99.90;;;;;;4896168;29;20841;-71
2021/10/07 09:52:38;;;;;;;1.93;1.93;;;13.60;99.90;;;;;;4896658;29;20572;-71
2021/10/07 09:55:11;;;;;;;2.60;2.40;;;13.80;99.90;;;;;;4896928;29;20474;-72
2021/10/07 09:57:52;;;;;;;2.27;2.20;;;13.80;99.90;;;;;;4897070;29;20517;-71
2021/10/07 10:00:18;;;;;;;2.40;2.30;;;13.80;99.90;;;;;;4901647;29;20520;-72
2021/10/07 10:02:45;;;;;;;3.50;2.13;;;13.90;99.90;;;;;;4915248;29;20951;-72
2021/10/07 10:05:13;;;;;;;2.90;2.23;;;14.00;99.90;;;;;;4915077;29;20521;-71
2021/10/07 10:07:40;;;;;;;3.03;2.70;;;14.10;99.90;;;;;;4915739;29;20565;-72
2021/10/07 10:10:09;;;;;;;2.00;1.90;;;14.20;99.90;;;;;;4916587;29;20967;-72
2021/10/07 10:12:36;;;;;;;1.70;1.70;;;14.30;99.90;;;;;;4919011;29;20860;-71
2021/10/07 10:15:06;;;;;;;3.00;2.80;;;14.30;99.90;;;;;;4919395;29;20967;-71
2021/10/07 10:17:34;;;;;;;2.67;2.50;;;14.40;99.90;;;;;;4919194;29;20570;-71
2021/10/07 10:20:04;;;;;;;1.60;1.50;;;14.50;99.90;;;;;;4918170;29;20458;-71
2021/10/07 10:22:32;;;;;;;2.23;2.13;;;14.50;99.90;;;;;;4915549;29;20482;-71
2021/10/07 10:25:00;;;;;;;2.20;2.00;;;14.50;99.90;;;;;;4915266;29;20482;-71
2021/10/07 10:27:50;;;;;;;1.93;1.90;;;14.50;99.90;;;;;;4915676;29;20466;-71
2021/10/07 10:30:30;;;;;;;5.90;2.97;;;14.60;99.90;;;;;;4917678;29;20578;-72
2021/10/07 10:32:58;;;;;;;2.80;2.70;;;14.60;99.90;;;;;;4918710;29;20493;-72
2021/10/07 10:35:37;;;;;;;2.70;2.60;;;14.70;99.90;;;;;;4918013;29;20474;-72
2021/10/07 10:38:06;;;;;;;3.67;2.60;;;14.70;99.90;;;;;;4918746;29;20496;-75
2021/10/07 10:40:33;;;;;;;1.90;1.83;;;14.80;99.90;;;;;;4918597;29;21078;-72
2021/10/07 10:43:36;;;;;;;2.10;2.10;;;14.90;99.90;;;;;;4918662;29;20833;-72
2021/10/07 10:46:13;;;;;;;1.63;1.53;;;15.00;99.90;;;;;;4918750;29;20947;-73
2021/10/07 10:49:11;;;;;;;4.97;1.93;;;15.10;99.90;;;;;;4918496;29;20466;-72
2021/10/07 10:51:38;;;;;;;2.27;1.80;;;15.10;99.90;;;;;;4898803;29;20538;-72
2021/10/07 10:54:10;;;;;;;2.30;2.20;;;15.10;99.90;;;;;;4899636;29;20463;-71
2021/10/07 10:56:59;;;;;;;1.73;1.30;;;15.10;99.90;;;;;;4899985;29;20856;-71
2021/10/07 10:59:30;;;;;;;2.50;2.40;;;15.10;99.90;;;;;;4899665;29;20456;-71
2021/10/07 11:02:25;;;;;;;2.07;2.07;;;15.10;99.90;;;;;;4899446;29;20497;-71
2021/10/07 11:04:54;;;;;;;1.93;1.83;;;15.10;99.90;;;;;;4899540;29;20472;-71
2021/10/07 11:07:23;;;;;;;1.10;1.10;;;15.30;99.90;;;;;;4899850;29;20853;-71
2021/10/07 11:10:05;;;;;;;1.00;1.00;;;15.30;99.90;;;;;;4899464;29;20476;-71
2021/10/07 11:12:43;;;;;;;3.20;1.53;;;15.50;99.90;;;;;;4899272;29;20491;-71
2021/10/07 11:15:12;;;;;;;2.00;1.10;;;15.50;99.90;;;;;;4899628;29;20451;-71
2021/10/07 11:17:40;;;;;;;1.10;1.10;;;15.50;99.90;;;;;;4899508;29;20463;-71
2021/10/07 11:20:09;;;;;;;2.90;0.90;;;15.60;99.90;;;;;;4898738;29;20482;-71
2021/10/07 11:22:35;;;;;;;0.70;0.70;;;15.70;99.90;;;;;;4914872;29;20522;-71
2021/10/07 11:25:05;;;;;;;2.07;1.10;;;15.80;99.90;;;;;;4917801;29;20470;-71
2021/10/07 11:27:40;;;;;;;1.00;1.00;;;15.80;99.90;;;;;;4917844;29;20470;-70
2021/10/07 11:30:09;;;;;;;1.03;1.03;;;15.80;99.90;;;;;;4917738;29;20867;-71
2021/10/07 11:32:39;;;;;;;1.23;1.23;;;15.80;99.90;;;;;;4918020;29;21002;-71
2021/10/07 11:35:09;;;;;;;2.87;1.10;;;15.80;99.90;;;;;;4917608;29;20547;-71
2021/10/07 11:37:56;;;;;;;1.00;1.00;;;15.80;99.90;;;;;;4918237;29;20513;-71
2021/10/07 11:40:26;;;;;;;1.13;1.03;;;15.80;99.90;;;;;;4917677;29;20888;-71
2021/10/07 11:42:53;;;;;;;0.97;0.97;;;15.90;99.90;;;;;;4917423;29;20463;-71
2021/10/07 11:45:22;;;;;;;1.40;1.30;;;16.00;99.90;;;;;;4917289;29;20545;-71
2021/10/07 11:47:51;;;;;;;1.27;1.17;;;16.00;99.90;;;;;;4917401;29;20514;-71
2021/10/07 11:50:19;;;;;;;1.00;0.90;;;16.00;99.90;;;;;;4916657;29;20538;-71
2021/10/07 11:52:46;;;;;;;1.70;0.90;;;16.10;99.90;;;;;;4917360;29;20490;-71
2021/10/07 11:55:13;;;;;;;0.90;0.90;;;16.10;99.90;;;;;;4917046;29;20487;-71
2021/10/07 11:57:48;;;;;;;1.73;1.73;;;16.10;99.90;;;;;;4917624;29;20470;-71
2021/10/07 12:00:15;;;;;;;1.47;1.47;;;16.20;99.90;;;;;;4917376;29;20560;-71
2021/10/07 12:02:42;;;;;;;1.20;1.20;;;16.20;99.90;;;;;;4917064;29;20470;-71
2021/10/07 12:05:19;;;;;;;1.47;1.47;;;16.20;99.90;;;;;;4916718;29;20562;-71
2021/10/07 12:08:01;;;;;;;0.83;0.83;;;16.20;99.90;;;;;;4917039;29;21030;-71
2021/10/07 12:10:37;;;;;;;1.37;1.27;;;16.20;99.90;;;;;;4917217;29;20479;-71
2021/10/07 12:13:12;;;;;;;1.10;1.00;;;16.30;99.90;;;;;;4917349;29;20641;-71
2021/10/07 12:15:43;;;;;;;1.60;1.50;;;16.20;99.90;;;;;;4916944;29;20474;-71
2021/10/07 12:18:11;;;;;;;1.57;1.47;;;16.30;99.90;;;;;;4916974;29;20533;-71
2021/10/07 12:20:40;;;;;;;1.07;1.07;;;16.30;99.90;;;;;;4916911;29;20558;-71
2021/10/07 12:23:08;;;;;;;1.07;1.07;;;16.40;99.90;;;;;;4917018;29;20467;-73
2021/10/07 12:25:44;;;;;;;1.57;1.47;;;16.40;99.90;;;;;;4917130;29;20495;-73
2021/10/07 12:28:17;;;;;;;1.40;1.30;;;16.50;99.90;;;;;;4917144;29;20498;-73
2021/10/07 12:30:52;;;;;;;1.23;1.00;;;16.50;99.90;;;;;;4916214;29;20550;-72
2021/10/07 12:33:19;;;;;;;1.17;1.10;;;16.60;99.90;;;;;;4916761;29;20542;-72
2021/10/07 12:35:58;;;;;;;1.10;1.10;;;16.50;99.90;;;;;;4915944;29;20475;-72
2021/10/07 12:38:26;;;;;;;1.50;1.10;;;16.50;99.90;;;;;;4916707;29;20470;-72
2021/10/07 12:40:55;;;;;;;0.90;0.90;;;16.50;99.90;;;;;;4916648;29;20522;-72
2021/10/07 12:43:22;;;;;;;1.03;1.00;;;16.50;99.90;;;;;;4916210;29;20478;-72
2021/10/07 12:46:06;;;;;;;1.27;1.27;;;16.60;99.90;;;;;;4916361;29;20549;-74
2021/10/07 12:48:56;;;;;;;1.43;1.33;;;16.70;99.90;;;;;;4916501;29;20500;-71
2021/10/07 12:51:27;;;;;;;2.67;1.30;;;16.70;99.90;;;;;;4898886;29;20500;-72
2021/10/07 12:53:54;;;;;;;1.27;1.27;;;16.60;99.90;;;;;;4897165;29;20559;-72
2021/10/07 12:56:27;;;;;;;1.30;1.30;;;16.60;99.90;;;;;;4897411;29;20835;-72
2021/10/07 12:58:57;;;;;;;0.90;0.90;;;16.50;99.90;;;;;;4897640;29;20792;-72
2021/10/07 13:01:26;;;;;;;2.10;0.90;;;16.50;99.90;;;;;;4897413;29;20518;-72
2021/10/07 13:04:20;;;;;;;1.20;1.20;;;16.50;99.90;;;;;;4896283;29;20471;-72
2021/10/07 13:06:50;;;;;;;0.80;0.80;;;16.50;99.90;;;;;;4897305;29;20915;-72
2021/10/07 13:09:17;;;;;;;1.00;1.00;;;16.50;99.90;;;;;;4897430;29;20480;-72
2021/10/07 13:11:44;;;;;;;1.47;0.97;;;16.50;99.90;;;;;;4897261;29;20487;-71
2021/10/07 13:14:17;;;;;;;1.60;1.60;;;16.60;99.90;;;;;;4896875;29;20518;-71
2021/10/07 13:16:44;;;;;;;0.90;0.90;;;16.60;99.90;;;;;;4897125;29;20595;-71
2021/10/07 13:19:11;;;;;;;0.80;0.80;;;16.60;99.90;;;;;;4897542;29;20470;-71
2021/10/07 13:21:38;;;;;;;1.27;1.17;;;16.60;99.90;;;;;;4896627;29;20492;-70
2021/10/07 13:24:06;;;;;;;0.93;0.80;;;16.70;99.90;;;;;;4897313;29;20463;-70
2021/10/07 13:26:48;;;;;;;1.40;1.30;;;16.80;99.90;;;;;;4897425;29;20488;-71
2021/10/07 13:29:15;;;;;;;1.00;1.00;;;16.80;99.90;;;;;;4897150;29;20467;-71
2021/10/07 13:31:42;;;;;;;0.90;0.80;;;16.90;99.90;;;;;;4897353;29;20488;-71
2021/10/07 13:34:09;;;;;;;1.17;1.13;;;16.90;99.90;;;;;;4897604;29;20558;-71
2021/10/07 13:36:35;;;;;;;0.70;0.70;;;16.90;99.90;;;;;;4896371;29;20558;-71
2021/10/07 13:39:04;;;;;;;0.87;0.87;;;17.00;99.90;;;;;;4897499;29;20832;-70
2021/10/07 13:41:32;;;;;;;1.07;0.80;;;17.00;99.90;;;;;;4896601;29;20566;-71
2021/10/07 13:43:59;;;;;;;1.10;1.00;;;17.00;99.90;;;;;;4896995;29;20534;-71
2021/10/07 13:46:26;;;;;;;0.67;0.67;;;17.10;99.90;;;;;;4897273;29;20471;-71
2021/10/07 13:48:53;;;;;;;0.57;0.57;;;17.10;99.90;;;;;;4897113;29;20492;-72
2021/10/07 13:51:20;;;;;;;0.87;0.87;;;17.20;99.90;;;;;;4895969;29;20547;-72
2021/10/07 13:53:46;;;;;;;0.80;0.80;;;17.20;99.90;;;;;;4896795;29;21066;-72
2021/10/07 13:56:13;;;;;;;0.70;0.70;;;17.20;99.90;;;;;;4896699;29;20471;-72
2021/10/07 13:58:41;;;;;;;1.30;1.20;;;17.20;99.90;;;;;;4896755;29;20948;-73
2021/10/07 14:01:08;;;;;;;0.60;0.60;;;17.20;99.90;;;;;;4896401;29;20507;-71
2021/10/07 14:03:34;;;;;;;1.27;0.87;;;17.20;99.90;;;;;;4898082;29;20464;-72
2021/10/07 14:06:03;;;;;;;1.03;1.03;;;17.20;99.90;;;;;;4899818;29;20905;-70
2021/10/07 14:08:30;;;;;;;0.90;0.90;;;17.10;99.90;;;;;;4900335;29;20491;-71
2021/10/07 14:11:04;;;;;;;1.13;1.13;;;17.20;99.90;;;;;;4900269;29;20558;-70
2021/10/07 14:13:31;;;;;;;1.00;1.00;;;17.10;99.90;;;;;;4900088;29;20491;-70
2021/10/07 14:15:59;;;;;;;0.80;0.80;;;17.00;99.90;;;;;;4900406;29;20932;-70
2021/10/07 14:18:25;;;;;;;3.30;1.30;;;17.00;99.90;;;;;;4900167;29;20544;-70
2021/10/07 14:20:52;;;;;;;1.73;1.30;;;17.00;99.90;;;;;;4899330;29;21000;-71
2021/10/07 14:23:19;;;;;;;1.00;0.90;;;16.90;99.90;;;;;;4900344;29;20519;-70
2021/10/07 14:25:46;;;;;;;0.93;0.93;;;16.90;99.90;;;;;;4900412;29;20475;-70
2021/10/07 14:28:13;;;;;;;0.83;0.83;;;16.90;99.90;;;;;;4901060;29;20887;-70
2021/10/07 14:30:39;;;;;;;1.17;1.03;;;17.00;99.90;;;;;;4901963;29;20637;-70
2021/10/07 14:33:07;;;;;;;1.30;1.30;;;16.90;99.90;;;;;;4901376;29;20546;-69
2021/10/07 14:35:34;;;;;;;1.23;1.23;;;16.90;99.90;;;;;;4899365;29;20467;-70
2021/10/07 14:38:01;;;;;;;0.80;0.80;;;16.90;99.90;;;;;;4899875;29;21032;-69
2021/10/07 14:40:28;;;;;;;1.50;1.40;;;16.90;99.90;;;;;;4899843;29;20570;-69
2021/10/07 14:42:54;;;;;;;3.03;1.10;;;16.90;99.90;;;;;;4899513;29;20483;-69
2021/10/07 14:45:22;;;;;;;0.90;0.90;;;16.90;99.90;;;;;;4899433;29;20653;-69
2021/10/07 14:47:49;;;;;;;1.00;1.00;;;16.90;99.90;;;;;;4899855;29;20806;-69
2021/10/07 14:50:18;;;;;;;1.00;1.00;;;16.90;99.90;;;;;;4898752;29;20553;-70
2021/10/07 14:52:45;;;;;;;1.17;1.17;;;16.90;99.90;;;;;;4899438;29;21059;-69
2021/10/07 14:55:13;;;;;;;1.17;1.17;;;16.90;99.90;;;;;;4899551;29;20491;-71
2021/10/07 14:57:40;;;;;;;1.00;1.00;;;16.80;99.90;;;;;;4899802;29;20784;-71
2021/10/07 15:00:09;;;;;;;0.83;0.83;;;16.80;99.90;;;;;;4899483;29;20475;-71
2021/10/07 15:02:36;;;;;;;1.80;1.10;;;16.80;99.90;;;;;;4899463;29;20479;-71
2021/10/07 15:05:03;;;;;;;1.00;1.00;;;16.80;99.90;;;;;;4898612;29;20511;-71
2021/10/07 15:07:31;;;;;;;1.57;1.57;;;16.70;99.90;;;;;;4900121;29;20475;-70
2021/10/07 15:09:58;;;;;;;0.87;0.87;;;16.70;99.90;;;;;;4899815;29;20467;-70
2021/10/07 15:12:24;;;;;;;1.10;1.10;;;16.60;99.90;;;;;;4903342;29;20487;-71
2021/10/07 15:14:51;;;;;;;1.30;1.20;;;16.60;99.90;;;;;;4900223;29;20551;-70
2021/10/07 15:17:18;;;;;;;0.80;0.80;;;16.50;99.90;;;;;;4901842;29;20487;-71
2021/10/07 15:19:44;;;;;;;1.20;1.20;;;16.40;99.90;;;;;;4900216;29;20475;-71
2021/10/07 15:22:14;;;;;;;1.20;1.20;;;16.40;99.90;;;;;;4899337;29;20515;-70
2021/10/07 15:24:42;;;;;;;1.07;0.90;;;16.40;99.90;;;;;;4899201;29;20468;-71
2021/10/07 15:27:09;;;;;;;1.70;1.50;;;16.30;99.90;;;;;;4899393;29;20534;-70
2021/10/07 15:29:35;;;;;;;0.63;0.63;;;16.20;99.90;;;;;;4897249;29;20972;-71
2021/10/07 15:32:03;;;;;;;1.00;1.00;;;16.20;99.90;;;;;;4898839;29;20570;-70
2021/10/07 15:34:30;;;;;;;2.67;1.13;;;16.10;99.90;;;;;;4898520;29;21067;-70
2021/10/07 15:36:57;;;;;;;1.73;0.90;;;16.00;99.90;;;;;;4901245;29;20475;-71
2021/10/07 15:39:24;;;;;;;1.10;1.10;;;16.00;99.90;;;;;;4899394;29;20480;-70
2021/10/07 15:41:53;;;;;;;1.67;1.57;;;15.90;99.90;;;;;;4898937;29;20861;-69
2021/10/07 15:44:19;;;;;;;1.20;1.20;;;15.80;99.90;;;;;;4898814;29;20467;-69
2021/10/07 15:46:46;;;;;;;0.80;0.80;;;15.80;99.90;;;;;;4898684;29;20756;-68
2021/10/07 15:49:13;;;;;;;1.30;1.30;;;15.70;99.90;;;;;;4899219;29;20526;-68
2021/10/07 15:51:40;;;;;;;3.13;1.70;;;15.70;99.90;;;;;;4897949;29;20562;-68
2021/10/07 15:54:06;;;;;;;1.70;1.60;;;15.60;99.90;;;;;;4896445;29;20527;-68
2021/10/07 15:56:33;;;;;;;1.63;1.53;;;15.50;99.90;;;;;;4898443;29;20468;-68
2021/10/07 15:59:01;;;;;;;1.80;1.20;;;15.40;99.90;;;;;;4898420;29;20474;-68
2021/10/07 16:01:31;;;;;;;1.43;1.33;;;15.30;99.90;;;;;;4898395;29;20499;-68
2021/10/07 16:03:58;;;;;;;1.10;1.10;;;15.30;99.90;;;;;;4898316;29;20480;-68
2021/10/07 16:06:25;;;;;;;1.37;1.20;;;15.10;99.90;;;;;;4897623;29;20796;-68
2021/10/07 16:08:51;;;;;;;1.40;1.40;;;15.10;99.90;;;;;;4898574;29;20538;-68
2021/10/07 16:11:18;;;;;;;2.37;1.40;;;15.00;99.90;;;;;;4897916;29;20622;-68
2021/10/07 16:13:45;;;;;;;1.47;1.47;;;14.90;99.90;;;;;;4897600;29;21010;-68
2021/10/07 16:16:13;;;;;;;1.73;1.73;;;14.80;99.90;;;;;;4897943;29;20516;-68
2021/10/07 16:18:39;;;;;;;3.73;3.53;;;14.70;99.90;;;;;;4898298;29;20614;-68
2021/10/07 16:21:06;;;;;;;3.37;3.23;;;14.60;99.90;;;;;;4897063;29;20507;-68
2021/10/07 16:23:33;;;;;;;2.93;2.73;;;14.50;99.90;;;;;;4897669;29;20545;-68
2021/10/07 16:26:00;;;;;;;3.30;3.20;;;14.40;99.90;;;;;;4897463;29;20934;-68
2021/10/07 16:28:31;;;;;;;2.47;2.27;;;14.30;99.90;;;;;;4897228;29;20834;-68
2021/10/07 16:30:58;;;;;;;2.60;2.50;;;14.20;99.90;;;;;;4897414;29;21052;-68
2021/10/07 16:33:28;;;;;;;1.93;1.93;;;14.10;99.90;;;;;;4897411;29;21011;-68
2021/10/07 16:35:55;;;;;;;1.77;1.77;;;14.00;99.90;;;;;;4897255;29;20550;-68
2021/10/07 16:38:24;;;;;;;1.77;1.67;;;13.90;99.90;;;;;;4896064;29;20539;-68
2021/10/07 16:40:54;;;;;;;3.07;1.97;;;13.80;99.90;;;;;;4897174;29;21024;-69
2021/10/07 16:43:21;;;;;;;2.60;2.50;;;13.80;99.90;;;;;;4897657;29;20573;-69
2021/10/07 16:45:48;;;;;;;2.60;2.60;;;13.70;99.90;;;;;;4900265;29;20535;-70
2021/10/07 16:48:15;;;;;;;3.00;2.77;;;13.60;99.90;;;;;;4897622;29;20530;-69
2021/10/07 16:50:43;;;;;;;2.40;2.30;;;13.50;99.90;;;;;;4896231;29;21142;-69
2021/10/07 16:53:10;;;;;;;4.40;2.17;;;13.40;99.90;;;;;;4897077;29;20479;-69
2021/10/07 16:55:38;;;;;;;2.60;2.50;;;13.40;99.90;;;;;;4897477;29;20543;-69
2021/10/07 16:58:06;;;;;;;2.60;2.40;;;13.30;99.90;;;;;;4897318;29;20948;-70
2021/10/07 17:00:34;;;;;;;2.03;1.93;;;13.20;99.90;;;;;;4894812;29;20964;-70